Time;durP1;ratioP1;P1;durP2;ratioP2;P2;SDS_P1;SDS_P2;PMS_P1;PMS_P2;Temp;Humidity;BMP_temperature;BMP_pressure;BME280_temperature;BME280_humidity;BME280_pressure;Samples;Min_cycle;Max_cycle;Signal;HPM_P1;HPM_P2
2021/08/27 00:00:37;;;;;;;;;;;;;;;25.89;66.78;100604.00;5111427;28;1906;-62
2021/08/27 00:03:04;;;;;;;;;;;;;;;25.89;66.69;100601.34;5093547;28;1281;-63
2021/08/27 00:05:31;;;;;;;;;;;;;;;25.90;66.44;100608.38;5111081;28;1204;-63
2021/08/27 00:07:58;;;;;;;;;;;;;;;25.86;66.45;100615.78;5111831;28;1017;-63
2021/08/27 00:10:25;;;;;;;;;;;;;;;25.89;66.14;100606.66;5111243;28;1271;-62
2021/08/27 00:13:01;;;;;;;;;;;;;;;25.84;66.19;100603.56;5111949;28;1165;-63
2021/08/27 00:15:28;;;;;;;;;;;;;;;25.87;66.24;100603.31;5111009;28;1302;-62
2021/08/27 00:17:54;;;;;;;;;;;;;;;25.83;66.09;100600.06;5110856;28;1320;-62
2021/08/27 00:20:21;;;;;;;;;;;;;;;25.84;66.09;100603.56;5111271;28;2020;-63
2021/08/27 00:22:48;;;;;;;;;;;;;;;25.82;66.52;100594.84;5111148;28;1384;-63
2021/08/27 00:25:15;;;;;;;;;;;;;;;25.83;66.24;100591.22;5092279;28;789;-63
2021/08/27 00:27:41;;;;;;;;;;;;;;;25.83;66.33;100594.72;5111512;28;1315;-63
2021/08/27 00:30:08;;;;;;;;;;;;;;;25.81;66.62;100593.16;5091350;28;1106;-64
2021/08/27 00:32:35;;;;;;;;;;;;;;;25.76;66.52;100590.91;5111298;28;1263;-65
2021/08/27 00:35:04;;;;;;;;;;;;;;;25.78;66.53;100590.75;5110939;28;829;-64
2021/08/27 00:37:32;;;;;;;;;;;;;;;25.76;66.68;100590.06;5110779;28;1274;-63
2021/08/27 00:39:59;;;;;;;;;;;;;;;25.76;66.62;100601.56;5110530;28;907;-64
2021/08/27 00:42:26;;;;;;;;;;;;;;;25.79;66.55;100590.63;5110885;28;1906;-63
2021/08/27 00:44:52;;;;;;;;;;;;;;;25.75;66.86;100593.69;5110920;28;1004;-63
2021/08/27 00:47:19;;;;;;;;;;;;;;;25.72;67.07;100593.97;5111070;28;1220;-63
2021/08/27 00:49:49;;;;;;;;;;;;;;;25.73;66.93;100588.50;5110996;28;873;-63
2021/08/27 00:52:16;;;;;;;;;;;;;;;25.71;67.05;100592.28;5110378;28;1232;-63
2021/08/27 00:54:52;;;;;;;;;;;;;;;25.70;66.97;100587.94;5110398;28;1550;-63
2021/08/27 00:57:20;;;;;;;;;;;;;;;25.70;66.85;100590.59;5110399;28;1272;-63
2021/08/27 00:59:47;;;;;;;;;;;;;;;25.63;67.54;100590.28;5110327;28;1007;-63
2021/08/27 01:02:14;;;;;;;;;;;;;;;25.63;67.56;100584.09;5110593;28;1909;-63
2021/08/27 01:04:42;;;;;;;;;;;;;;;25.65;67.42;100584.84;5110452;28;1061;-63
2021/08/27 01:07:19;;;;;;;;;;;;;;;25.63;67.41;100590.28;5109419;28;1208;-62
2021/08/27 01:10:05;;;;;;;;;;;;;;;25.66;67.37;100590.03;5109660;28;1146;-63
2021/08/27 01:12:58;;;;;;;;;;;;;;;25.69;67.41;100595.09;5110515;28;1259;-63
2021/08/27 01:15:25;;;;;;;;;;;;;;;25.68;66.96;100587.22;5106109;28;1968;-63
2021/08/27 01:17:59;;;;;;;;;;;;;;;25.71;66.71;100589.63;5110471;28;999;-63
2021/08/27 01:20:29;;;;;;;;;;;;;;;25.77;66.89;100578.41;5109980;28;1976;-63
2021/08/27 01:23:11;;;;;;;;;;;;;;;25.75;66.60;100577.69;5091547;28;1276;-62
2021/08/27 01:25:38;;;;;;;;;;;;;;;25.71;67.12;100573.63;5109994;28;1318;-64
2021/08/27 01:28:05;;;;;;;;;;;;;;;25.70;66.67;100575.44;5110122;28;1197;-62
2021/08/27 01:30:42;;;;;;;;;;;;;;;25.72;66.94;100572.63;5109584;28;1303;-63
2021/08/27 01:33:14;;;;;;;;;;;;;;;25.71;66.81;100570.94;5091125;28;1623;-62
2021/08/27 01:35:45;;;;;;;;;;;;;;;25.71;67.11;100566.47;5109386;28;1325;-63
2021/08/27 01:38:14;;;;;;;;;;;;;;;25.71;66.69;100568.28;5109601;28;980;-63
2021/08/27 01:40:45;;;;;;;;;;;;;;;25.72;66.83;100572.63;5091193;28;1909;-62
2021/08/27 01:43:12;;;;;;;;;;;;;;;25.73;67.29;100568.97;5109547;28;912;-64
2021/08/27 01:45:40;;;;;;;;;;;;;;;25.74;66.96;100568.88;5109534;28;1205;-62
2021/08/27 01:48:07;;;;;;;;;;;;;;;25.71;66.95;100565.63;5109365;28;928;-62
2021/08/27 01:50:35;;;;;;;;;;;;;;;25.71;67.20;100561.13;5109197;28;1337;-63
2021/08/27 01:53:03;;;;;;;;;;;;;;;25.70;67.11;100563.91;5109402;28;1267;-63
2021/08/27 01:55:30;;;;;;;;;;;;;;;25.70;67.32;100570.09;5109332;28;1606;-62
2021/08/27 01:57:58;;;;;;;;;;;;;;;25.66;67.18;100563.34;5109075;28;1185;-63
2021/08/27 02:00:25;;;;;;;;;;;;;;;25.67;67.20;100562.38;5090442;28;1366;-62
2021/08/27 02:02:53;;;;;;;;;;;;;;;25.68;67.29;100571.22;5109106;28;1910;-62
2021/08/27 02:05:21;;;;;;;;;;;;;;;25.66;67.32;100568.69;5109082;28;1266;-61
2021/08/27 02:07:48;;;;;;;;;;;;;;;25.64;67.16;100559.13;5090733;28;1481;-62
2021/08/27 02:10:15;;;;;;;;;;;;;;;25.63;67.32;100558.28;5108815;28;1139;-62
2021/08/27 02:12:42;;;;;;;;;;;;;;;25.66;67.56;100567.84;5090462;28;1323;-62
2021/08/27 02:15:12;;;;;;;;;;;;;;;25.64;67.01;100556.47;5091300;28;793;-63
2021/08/27 02:17:39;;;;;;;;;;;;;;;25.66;67.18;100557.16;5109393;28;1208;-63
2021/08/27 02:20:06;;;;;;;;;;;;;;;25.68;67.19;100555.22;5109177;28;929;-63
2021/08/27 02:22:33;;;;;;;;;;;;;;;25.66;67.40;100555.34;5108535;28;1992;-63
2021/08/27 02:25:03;;;;;;;;;;;;;;;25.60;67.56;100558.56;5108111;28;1165;-61
2021/08/27 02:27:31;;;;;;;;;;;;;;;25.62;67.35;100551.28;5090107;28;1509;-62
2021/08/27 02:29:59;;;;;;;;;;;;;;;25.60;67.36;100553.22;5108744;28;1079;-63
2021/08/27 02:32:26;;;;;;;;;;;;;;;25.61;67.32;100551.41;5108456;28;1122;-62
2021/08/27 02:34:58;;;;;;;;;;;;;;;25.60;67.43;100552.38;5108604;28;742;-62
2021/08/27 02:37:25;;;;;;;;;;;;;;;25.59;67.54;100551.56;5108871;28;1288;-63
2021/08/27 02:39:52;;;;;;;;;;;;;;;25.58;67.59;100549.84;5108861;28;876;-63
2021/08/27 02:42:19;;;;;;;;;;;;;;;25.52;67.92;100545.91;5108707;28;1987;-63
2021/08/27 02:44:46;;;;;;;;;;;;;;;25.54;68.07;100554.63;5108476;28;944;-63
2021/08/27 02:47:13;;;;;;;;;;;;;;;25.58;67.89;100554.34;5090055;28;1252;-64
2021/08/27 02:49:40;;;;;;;;;;;;;;;25.56;67.82;100546.50;5090035;28;1351;-63
2021/08/27 02:52:24;;;;;;;;;;;;;;;25.58;67.68;100549.00;5108701;28;1238;-63
2021/08/27 02:55:06;;;;;;;;;;;;;;;25.57;67.95;100536.63;5111659;28;1956;-62
2021/08/27 02:57:37;;;;;;;;;;;;;;;25.57;68.07;100541.97;5112645;28;1287;-62
2021/08/27 03:00:05;;;;;;;;;;;;;;;25.49;68.04;100542.66;5113397;28;968;-62
2021/08/27 03:02:33;;;;;;;;;;;;;;;25.53;68.15;100541.44;5094295;28;1922;-63
2021/08/27 03:05:06;;;;;;;;;;;;;;;25.48;68.14;100541.81;5112675;28;1168;-63
2021/08/27 03:07:35;;;;;;;;;;;;;;;25.43;68.25;100541.38;5093578;28;1216;-64
2021/08/27 03:10:16;;;;;;;;;;;;;;;25.42;68.12;100550.31;5112111;28;1162;-63
2021/08/27 03:13:06;;;;;;;;;;;;;;;25.47;68.25;100539.28;5094115;28;1228;-63
2021/08/27 03:15:42;;;;;;;;;;;;;;;25.43;68.36;100549.38;5101833;28;2004;-62
2021/08/27 03:18:11;;;;;;;;;;;;;;;25.42;68.46;100542.34;5112629;28;1287;-63
2021/08/27 03:20:47;;;;;;;;;;;;;;;25.39;68.94;100549.75;5094404;28;1315;-62
2021/08/27 03:23:14;;;;;;;;;;;;;;;25.47;68.44;100539.28;5094280;28;957;-63
2021/08/27 03:25:45;;;;;;;;;;;;;;;25.48;68.46;100539.16;5093570;28;1248;-63
2021/08/27 03:28:21;;;;;;;;;;;;;;;25.50;68.17;100545.19;5112183;28;1091;-63
2021/08/27 03:30:52;;;;;;;;;;;;;;;25.51;68.59;100532.69;5111890;28;1417;-64
2021/08/27 03:33:20;;;;;;;;;;;;;;;25.47;68.63;100540.09;5112081;28;1039;-63
2021/08/27 03:35:54;;;;;;;;;;;;;;;25.43;68.57;100536.03;5112001;28;1294;-63
2021/08/27 03:38:23;;;;;;;;;;;;;;;25.41;68.92;100539.81;5093525;28;733;-63
2021/08/27 03:40:51;;;;;;;;;;;;;;;25.47;68.97;100531.28;5112092;28;1200;-62
2021/08/27 03:43:18;;;;;;;;;;;;;;;25.46;68.66;100533.09;5111743;28;1914;-64
2021/08/27 03:45:46;;;;;;;;;;;;;;;25.44;68.89;100535.03;5093618;28;1295;-64
2021/08/27 03:48:13;;;;;;;;;;;;;;;25.48;69.01;100533.81;5093871;28;996;-64
2021/08/27 03:50:39;;;;;;;;;;;;;;;25.47;68.92;100531.28;5111950;28;1330;-64
2021/08/27 03:53:08;;;;;;;;;;;;;;;25.44;69.09;100526.22;5112251;28;1280;-63
2021/08/27 03:55:34;;;;;;;;;;;;;;;25.43;69.05;100528.03;5111432;28;1370;-61
2021/08/27 03:58:02;;;;;;;;;;;;;;;25.41;69.33;100521.97;5111672;28;1251;-60
2021/08/27 04:00:37;;;;;;;;;;;;;;;25.35;69.54;100522.50;5111634;28;1288;-61
2021/08/27 04:03:04;;;;;;;;;;;;;;;25.35;69.68;100522.50;5111625;28;1937;-61
2021/08/27 04:05:31;;;;;;;;;;;;;;;25.34;70.05;100531.50;5111391;28;1245;-62
2021/08/27 04:07:58;;;;;;;;;;;;;;;25.34;70.44;100528.84;5092763;28;1455;-61
2021/08/27 04:10:25;;;;;;;;;;;;;;;25.35;70.12;100522.50;5111273;28;1244;-63
2021/08/27 04:12:52;;;;;;;;;;;;;;;25.37;69.96;100527.72;5111127;28;1052;-63
2021/08/27 04:15:22;;;;;;;;;;;;;;;25.39;69.81;100529.28;5111814;28;829;-63
2021/08/27 04:17:49;;;;;;;;;;;;;;;25.39;69.79;100531.94;5111744;28;1117;-63
2021/08/27 04:20:16;;;;;;;;;;;;;;;25.39;70.27;100537.25;5075764;28;1444;-64
2021/08/27 04:22:43;;;;;;;;;;;;;;;25.42;69.76;100525.47;5111056;28;1980;-62
2021/08/27 04:25:10;;;;;;;;;;;;;;;25.41;69.93;100521.16;5111403;28;818;-62
2021/08/27 04:27:38;;;;;;;;;;;;;;;25.38;70.00;100527.56;5111169;28;1220;-62
2021/08/27 04:30:05;;;;;;;;;;;;;;;25.33;70.66;100529.81;5111147;28;953;-63
2021/08/27 04:32:32;;;;;;;;;;;;;;;25.36;70.78;100539.34;5111293;28;1295;-63
2021/08/27 04:34:59;;;;;;;;;;;;;;;25.33;70.57;100532.47;5111159;28;1198;-63
2021/08/27 04:37:26;;;;;;;;;;;;;;;25.35;71.01;100535.03;5075322;28;1327;-63
2021/08/27 04:39:53;;;;;;;;;;;;;;;25.37;70.76;100535.72;5097140;28;817;-63
2021/08/27 04:42:19;;;;;;;;;;;;;;;25.38;70.90;100535.56;5055258;28;1985;-64
2021/08/27 04:44:46;;;;;;;;;;;;;;;25.40;70.92;100541.63;5069944;28;779;-63
2021/08/27 04:47:13;;;;;;;;;;;;;;;25.36;70.88;100544.69;5052305;28;1209;-62
2021/08/27 04:49:40;;;;;;;;;;;;;;;25.41;71.33;100537.97;5070157;28;1198;-63
2021/08/27 04:52:07;;;;;;;;;;;;;;;25.43;71.21;100543.19;5078318;28;1504;-63
2021/08/27 04:54:34;;;;;;;;;;;;;;;25.37;71.64;100538.38;5072287;28;1584;-63
2021/08/27 04:57:01;;;;;;;;;;;;;;;25.39;71.39;100528.41;5090032;28;1224;-63
2021/08/27 04:59:27;;;;;;;;;;;;;;;25.35;71.93;100538.50;5071639;28;1700;-63
2021/08/27 05:01:59;;;;;;;;;;;;;;;25.31;72.26;100536.25;5089852;28;1989;-62
2021/08/27 05:04:27;;;;;;;;;;;;;;;25.32;72.67;100548.63;5090149;28;832;-62
2021/08/27 05:06:54;;;;;;;;;;;;;;;25.33;72.26;100550.28;5089983;28;1216;-63
2021/08/27 05:09:21;;;;;;;;;;;;;;;25.35;72.23;100532.34;5071528;28;838;-63
2021/08/27 05:11:48;;;;;;;;;;;;;;;25.40;72.35;100541.63;5087036;28;1240;-63
2021/08/27 05:14:15;;;;;;;;;;;;;;;25.41;72.47;100548.63;5068875;28;1144;-62
2021/08/27 05:16:44;;;;;;;;;;;;;;;25.41;71.92;100553.16;5068183;28;1378;-62
2021/08/27 05:19:10;;;;;;;;;;;;;;;25.42;72.41;100560.16;5051377;28;1269;-63
2021/08/27 05:21:37;;;;;;;;;;;;;;;25.41;71.97;100553.97;5069164;28;1895;-62
2021/08/27 05:24:04;;;;;;;;;;;;;;;25.41;71.49;100553.97;5069587;28;830;-63
2021/08/27 05:26:32;;;;;;;;;;;;;;;25.44;71.05;100561.69;5069370;28;1427;-62
2021/08/27 05:28:59;;;;;;;;;;;;;;;25.42;71.50;100560.16;5068878;28;1193;-62
2021/08/27 05:31:25;;;;;;;;;;;;;;;25.43;71.00;100567.19;5071997;28;1232;-63
2021/08/27 05:33:52;;;;;;;;;;;;;;;25.39;71.22;100560.41;5089234;28;799;-62
2021/08/27 05:36:19;;;;;;;;;;;;;;;25.39;71.34;100561.25;5089156;28;1334;-63
2021/08/27 05:38:46;;;;;;;;;;;;;;;25.44;71.28;100563.53;5088938;28;723;-62
2021/08/27 05:41:13;;;;;;;;;;;;;;;25.38;71.44;100556.91;5088835;28;1228;-63
2021/08/27 05:43:40;;;;;;;;;;;;;;;25.37;71.67;100560.56;5070874;28;1985;-62
2021/08/27 05:46:06;;;;;;;;;;;;;;;25.38;71.72;100559.56;5089024;28;1287;-63
2021/08/27 05:48:33;;;;;;;;;;;;;;;25.39;71.49;100560.41;5089454;28;901;-61
2021/08/27 05:51:00;;;;;;;;;;;;;;;25.39;71.76;100558.59;5089284;28;1305;-62
2021/08/27 05:53:27;;;;;;;;;;;;;;;25.47;71.24;100555.28;5089474;28;853;-63
2021/08/27 05:55:54;;;;;;;;;;;;;;;25.43;71.17;100556.50;5088911;28;1518;-63
2021/08/27 05:58:21;;;;;;;;;;;;;;;25.40;71.28;100570.13;5089351;28;1151;-62
2021/08/27 06:00:50;;;;;;;;;;;;;;;25.37;70.99;100563.22;5070857;28;1307;-62
2021/08/27 06:03:17;;;;;;;;;;;;;;;25.42;70.68;100562.81;5070545;28;1967;-63
2021/08/27 06:05:45;;;;;;;;;;;;;;;25.44;70.58;100574.22;5089006;28;1330;-62
2021/08/27 06:08:31;;;;;;;;;;;;;;;25.42;70.28;100565.47;5088871;28;1263;-63
2021/08/27 06:10:58;;;;;;;;;;;;;;;25.43;70.60;100572.50;5083419;28;1617;-64
2021/08/27 06:13:25;;;;;;;;;;;;;;;25.47;70.43;100580.09;5075604;28;1281;-64
2021/08/27 06:15:52;;;;;;;;;;;;;;;25.44;70.22;100580.34;5049388;28;1421;-62
2021/08/27 06:18:19;;;;;;;;;;;;;;;25.48;70.17;100573.81;5067468;28;1023;-62
2021/08/27 06:20:48;;;;;;;;;;;;;;;25.51;70.06;100581.56;5067315;28;1260;-62
2021/08/27 06:23:15;;;;;;;;;;;;;;;25.55;69.84;100576.81;5049654;28;1902;-61
2021/08/27 06:25:42;;;;;;;;;;;;;;;25.51;69.97;100568.22;5049548;28;1237;-63
2021/08/27 06:28:08;;;;;;;;;;;;;;;25.54;69.87;100580.44;5066885;28;1298;-63
2021/08/27 06:30:35;;;;;;;;;;;;;;;25.50;70.14;100574.53;5067578;28;1334;-63
2021/08/27 06:33:02;;;;;;;;;;;;;;;25.57;70.01;100584.66;5067441;28;1185;-64
2021/08/27 06:35:31;;;;;;;;;;;;;;;25.50;70.08;100585.19;5066966;28;1225;-64
2021/08/27 06:41:08;;;;;;;;;;;;;;;25.56;69.85;100570.50;5067215;28;1208;-64
2021/08/27 06:43:37;;;;;;;;;;;;;;;25.63;69.48;100576.94;5067165;28;1914;-63
2021/08/27 06:46:05;;;;;;;;;;;;;;;25.61;69.44;100576.25;5067071;28;1335;-64
2021/08/27 06:48:33;;;;;;;;;;;;;;;25.61;69.60;100564.75;5048951;28;1502;-64
2021/08/27 06:50:59;;;;;;;;;;;;;;;25.63;69.67;100576.94;5048562;28;1263;-66
2021/08/27 06:53:26;;;;;;;;;;;;;;;25.65;69.23;100571.50;5032437;28;1253;-63
2021/08/27 06:55:53;;;;;;;;;;;;;;;25.66;69.86;100568.69;5084262;28;1244;-65
2021/08/27 06:58:20;;;;;;;;;;;;;;;25.68;69.80;100569.41;5067613;28;1299;-65
2021/08/27 07:00:46;;;;;;;;;;;;;;;25.70;69.62;100569.25;5085614;28;1272;-66
2021/08/27 07:03:14;;;;;;;;;;;;;;;25.70;68.66;100569.25;5086424;28;1914;-68
2021/08/27 07:05:41;;;;;;;;;;;;;;;25.73;68.53;100577.00;5086455;28;1292;-64
2021/08/27 07:08:08;;;;;;;;;;;;;;;25.79;69.25;100579.09;5087004;28;1280;-63
2021/08/27 07:10:34;;;;;;;;;;;;;;;25.77;69.61;100575.75;5068474;28;1283;-65
2021/08/27 07:13:02;;;;;;;;;;;;;;;25.76;68.64;100571.38;5068794;28;1292;-65
2021/08/27 07:15:29;;;;;;;;;;;;;;;25.83;69.39;100572.53;5068091;28;1296;-65
2021/08/27 07:17:55;;;;;;;;;;;;;;;25.83;67.95;100576.03;5087178;28;1248;-64
2021/08/27 07:20:23;;;;;;;;;;;;;;;25.89;68.35;100575.50;5086720;28;1256;-63
2021/08/27 07:22:50;;;;;;;;;;;;;;;25.86;67.43;100580.25;5086990;28;1997;-63
2021/08/27 07:25:18;;;;;;;;;;;;;;;25.88;68.22;100587.16;5086943;28;1237;-64
2021/08/27 07:27:44;;;;;;;;;;;;;;;25.88;68.54;100580.97;5068067;28;1218;-66
2021/08/27 07:30:12;;;;;;;;;;;;;;;25.88;68.11;100584.47;5086435;28;1426;-64
2021/08/27 07:32:39;;;;;;;;;;;;;;;25.92;67.67;100580.56;5051993;28;1385;-64
2021/08/27 07:35:06;;;;;;;;;;;;;;;25.96;67.92;100578.47;5086487;28;1213;-64
2021/08/27 07:37:33;;;;;;;;;;;;;;;25.93;67.43;100578.75;5064088;28;1280;-67
2021/08/27 07:40:00;;;;;;;;;;;;;;;25.94;67.64;100583.06;5088092;28;1209;-65
2021/08/27 07:42:27;;;;;;;;;;;;;;;25.95;67.19;100582.97;5090153;28;1909;-65
2021/08/27 07:44:54;;;;;;;;;;;;;;;25.96;68.11;100581.13;5069229;28;1340;-69
2021/08/27 07:47:21;;;;;;;;;;;;;;;25.96;68.55;100581.13;5090572;28;1247;-67
2021/08/27 07:49:48;;;;;;;;;;;;;;;25.96;68.19;100581.13;5090296;28;1299;-67
2021/08/27 07:52:14;;;;;;;;;;;;;;;25.97;67.93;100582.81;5071963;28;1369;-66
2021/08/27 07:54:42;;;;;;;;;;;;;;;26.06;67.94;100581.97;5070240;28;1495;-64
2021/08/27 07:57:09;;;;;;;;;;;;;;;26.05;67.84;100588.31;5070993;28;1687;-66
2021/08/27 07:59:36;;;;;;;;;;;;;;;26.08;67.60;100580.84;5090141;28;1367;-66
2021/08/27 08:02:03;;;;;;;;;;;;;;;26.03;67.78;100585.75;5089802;28;1913;-66
2021/08/27 08:04:30;;;;;;;;;;;;;;;26.00;67.47;100582.53;5071611;28;1268;-68
2021/08/27 08:06:58;;;;;;;;;;;;;;;26.00;67.93;100579.84;5071809;28;1366;-65
2021/08/27 08:09:24;;;;;;;;;;;;;;;26.05;67.32;100581.13;5071359;28;1399;-63
2021/08/27 08:11:51;;;;;;;;;;;;;;;26.01;67.59;100578.88;5089928;28;1287;-66
2021/08/27 08:14:18;;;;;;;;;;;;;;;26.09;67.51;100577.22;5090354;28;1339;-63
2021/08/27 08:16:45;;;;;;;;;;;;;;;26.17;67.56;100583.72;5089895;28;1310;-64
2021/08/27 08:19:16;;;;;;;;;;;;;;;26.15;66.54;100582.97;5054520;28;1360;-65
2021/08/27 08:21:43;;;;;;;;;;;;;;;26.19;66.01;100590.59;5089202;28;1346;-62
2021/08/27 08:24:11;;;;;;;;;;;;;;;26.18;66.08;100580.03;5088946;28;1953;-63
2021/08/27 08:26:37;;;;;;;;;;;;;;;26.07;65.88;100579.19;5089686;28;1495;-64
2021/08/27 08:29:05;;;;;;;;;;;;;;;26.04;65.81;100582.13;5089797;28;1174;-67
2021/08/27 08:31:33;;;;;;;;;;;;;;;26.09;66.05;100574.53;5089422;28;1279;-65
2021/08/27 08:34:00;;;;;;;;;;;;;;;26.16;65.91;100582.88;5071141;28;1298;-61
2021/08/27 08:36:27;;;;;;;;;;;;;;;26.19;65.91;100582.59;5089558;28;1370;-69
2021/08/27 08:38:54;;;;;;;;;;;;;;;26.21;65.08;100574.44;5095763;28;1722;-64
2021/08/27 08:41:22;;;;;;;;;;;;;;;26.18;66.23;100575.56;5107960;28;1414;-65
2021/08/27 08:43:49;;;;;;;;;;;;;;;26.13;65.96;100577.78;5090313;28;1945;-65
2021/08/27 08:46:17;;;;;;;;;;;;;;;26.28;66.71;100573.75;5106964;28;1307;-69
2021/08/27 08:48:45;;;;;;;;;;;;;;;26.20;65.32;100573.63;5107807;28;1346;-65
2021/08/27 08:51:12;;;;;;;;;;;;;;;26.11;66.83;100579.75;5105820;28;1259;-66
2021/08/27 08:53:43;;;;;;;;;;;;;;;26.11;66.58;100574.41;5099130;28;1272;-65
2021/08/27 08:56:10;;;;;;;;;;;;;;;26.16;66.89;100571.34;5103962;28;1374;-67
2021/08/27 08:58:38;;;;;;;;;;;;;;;26.15;66.31;100573.16;5070823;28;1365;-70
2021/08/27 09:01:05;;;;;;;;;;;;;;;26.13;66.74;100574.25;5106799;28;1338;-66
2021/08/27 09:03:32;;;;;;;;;;;;;;;26.18;66.65;100569.38;5105917;28;1998;-70
2021/08/27 09:05:59;;;;;;;;;;;;;;;26.16;66.31;100569.53;5091549;28;1311;-66
2021/08/27 09:08:33;;;;;;;;;;;;;;;26.28;66.89;100570.22;5098014;28;1201;-63
2021/08/27 09:11:00;;;;;;;;;;;;;;;26.27;66.58;100568.53;5100627;28;1321;-64
2021/08/27 09:13:31;;;;;;;;;;;;;;;26.27;67.11;100571.19;5095002;28;1328;-63
2021/08/27 09:16:05;;;;;;;;;;;;;;;26.18;67.20;100580.03;5088546;28;1591;-63
2021/08/27 09:18:42;;;;;;;;;;;;;;;26.12;66.48;100576.06;5106852;28;1358;-62
2021/08/27 09:21:40;;;;;;;;;;;;;;;26.16;66.62;100579.34;5088569;28;1307;-62
2021/08/27 09:24:21;;;;;;;;;;;;;;;26.18;67.92;100578.22;5083890;28;1969;-63
2021/08/27 09:26:56;;;;;;;;;;;;;;;26.26;67.13;100566.88;5102648;28;1382;-63
2021/08/27 09:29:48;;;;;;;;;;;;;;;26.28;66.47;100581.75;5079601;28;1250;-65
2021/08/27 09:32:25;;;;;;;;;;;;;;;26.21;67.48;100583.28;5086283;28;1450;-64
2021/08/27 09:35:19;;;;;;;;;;;;;;;26.21;67.15;100585.09;5102821;28;1317;-63
2021/08/27 09:37:52;;;;;;;;;;;;;;;26.24;67.90;100569.66;5083270;28;1585;-63
2021/08/27 09:40:27;;;;;;;;;;;;;;;26.19;66.28;100571.91;5103249;28;1335;-62
2021/08/27 09:42:57;;;;;;;;;;;;;;;26.21;66.26;100580.63;5082195;28;1979;-63
2021/08/27 09:45:37;;;;;;;;;;;;;;;26.30;67.79;100569.09;5102614;28;1284;-61
2021/08/27 09:48:07;;;;;;;;;;;;;;;26.36;67.23;100567.69;5106120;28;1311;-61
2021/08/27 09:50:37;;;;;;;;;;;;;;;26.29;67.44;100571.94;5087010;28;1506;-60
2021/08/27 09:53:09;;;;;;;;;;;;;;;26.26;67.01;100565.03;5095317;28;1228;-60
2021/08/27 09:55:37;;;;;;;;;;;;;;;26.31;67.53;100569.94;5106340;28;1541;-62
2021/08/27 09:58:10;;;;;;;;;;;;;;;26.26;66.65;100565.03;5106480;28;1315;-61
2021/08/27 10:00:39;;;;;;;;;;;;;;;26.36;67.60;100573.03;5106870;28;1319;-61
2021/08/27 10:03:17;;;;;;;;;;;;;;;26.43;67.49;100574.16;5105686;28;1914;-62
2021/08/27 10:05:45;;;;;;;;;;;;;;;26.50;67.08;100576.16;5086394;28;1244;-65
2021/08/27 10:08:19;;;;;;;;;;;;;;;26.51;67.30;100567.13;5088714;28;1080;-60
2021/08/27 10:10:48;;;;;;;;;;;;;;;26.52;67.47;100563.47;5088452;28;1526;-64
2021/08/27 10:13:16;;;;;;;;;;;;;;;26.51;68.03;100569.78;5088612;28;1037;-64
2021/08/27 10:16:02;;;;;;;;;;;;;;;26.49;67.28;100563.75;5091462;28;1315;-60
2021/08/27 10:18:32;;;;;;;;;;;;;;;26.49;67.49;100563.75;5086954;28;1004;-65
2021/08/27 10:21:00;;;;;;;;;;;;;;;26.48;67.08;100562.06;5104794;28;1228;-60
2021/08/27 10:23:27;;;;;;;;;;;;;;;26.51;67.33;100561.78;5103992;28;1992;-61
2021/08/27 10:25:54;;;;;;;;;;;;;;;26.50;67.02;100560.13;5065289;28;1268;-61
2021/08/27 10:28:27;;;;;;;;;;;;;;;26.56;67.94;100564.88;5086946;28;957;-63
2021/08/27 10:30:56;;;;;;;;;;;;;;;26.50;67.17;100560.13;5104134;28;1327;-60
2021/08/27 10:33:40;;;;;;;;;;;;;;;26.50;66.72;100549.44;5088257;28;1431;-64
2021/08/27 10:36:30;;;;;;;;;;;;;;;26.53;67.58;100550.97;5055791;28;1542;-64
2021/08/27 10:38:59;;;;;;;;;;;;;;;26.53;67.27;100543.81;5065087;28;1509;-64
2021/08/27 10:41:32;;;;;;;;;;;;;;;26.55;67.62;100541.81;5080609;28;1291;-65
2021/08/27 10:44:17;;;;;;;;;;;;;;;26.61;67.69;100546.59;5067253;28;1996;-62
2021/08/27 10:47:02;;;;;;;;;;;;;;;26.60;67.17;100544.91;5056496;28;1387;-64
2021/08/27 10:49:54;;;;;;;;;;;;;;;26.63;67.49;100545.63;5059090;28;1443;-63
2021/08/27 10:52:35;;;;;;;;;;;;;;;26.63;66.59;100542.94;5079492;28;1252;-65
2021/08/27 10:55:06;;;;;;;;;;;;;;;26.53;67.61;100533.13;5052905;28;1729;-62
2021/08/27 10:58:04;;;;;;;;;;;;;;;26.67;67.07;100528.31;5048501;28;1502;-63
2021/08/27 11:00:32;;;;;;;;;;;;;;;26.76;67.74;100527.44;5070458;28;1284;-65
2021/08/27 11:03:00;;;;;;;;;;;;;;;26.70;67.38;100530.69;5049400;28;1921;-64
2021/08/27 11:05:39;;;;;;;;;;;;;;;26.71;67.48;100530.56;5086855;28;1252;-63
2021/08/27 11:08:11;;;;;;;;;;;;;;;26.81;67.48;100530.56;5068896;28;1320;-66
2021/08/27 11:10:40;;;;;;;;;;;;;;;26.70;67.57;100528.00;5068092;28;1303;-65
2021/08/27 11:13:10;;;;;;;;;;;;;;;26.70;66.96;100518.19;5086815;28;1178;-68
2021/08/27 11:15:38;;;;;;;;;;;;;;;26.70;67.48;100526.19;5090176;28;1298;-61
2021/08/27 11:18:07;;;;;;;;;;;;;;;26.68;67.12;100511.28;5072243;28;1300;-61
2021/08/27 11:20:35;;;;;;;;;;;;;;;26.67;67.15;100517.63;5091075;28;1238;-61
2021/08/27 11:23:05;;;;;;;;;;;;;;;26.69;67.22;100518.34;5071924;28;2010;-61
2021/08/27 11:25:33;;;;;;;;;;;;;;;26.66;66.99;100508.75;5090716;28;1208;-61
2021/08/27 11:28:05;;;;;;;;;;;;;;;26.73;67.64;100509.88;5084566;28;1530;-56
2021/08/27 15:25:37;;;;;;;;;;;;;;;26.81;63.92;100418.34;5082563;27;1378;-69
2021/08/27 15:28:04;;;;;;;;;;;;;;;26.61;64.32;100422.88;5063136;28;947;-70
2021/08/27 15:30:33;;;;;;;;;;;;;;;26.52;64.60;100413.91;5046055;28;1267;-70
2021/08/27 15:33:03;;;;;;;;;;;;;;;26.52;64.85;100427.25;5063694;28;1429;-76
2021/08/27 15:35:30;;;;;;;;;;;;;;;26.58;64.42;100424.00;5064141;28;1409;-75
2021/08/27 15:37:57;;;;;;;;;;;;;;;26.57;65.27;100422.31;5063409;28;1024;-74
2021/08/27 15:40:24;;;;;;;;;;;;;;;26.56;64.99;100427.81;5063124;28;1214;-74
2021/08/27 15:42:56;;;;;;;;;;;;;;;26.54;65.12;100419.09;5060543;28;1065;-77
2021/08/27 15:45:26;;;;;;;;;;;;;;;26.70;65.58;100426.47;5061560;28;1979;-65
2021/08/27 15:47:53;;;;;;;;;;;;;;;26.68;65.87;100425.81;5063634;28;1139;-65
2021/08/27 15:50:20;;;;;;;;;;;;;;;26.63;65.54;100423.56;5062006;28;1368;-65
2021/08/27 15:52:47;;;;;;;;;;;;;;;26.58;65.67;100428.50;5064478;28;1316;-64
2021/08/27 15:55:13;;;;;;;;;;;;;;;26.57;65.35;100422.31;5062778;28;1304;-64
2021/08/27 15:57:40;;;;;;;;;;;;;;;26.58;65.92;100423.16;5064690;28;1264;-65
2021/08/27 16:00:08;;;;;;;;;;;;;;;26.57;65.24;100421.47;5063437;28;995;-67
2021/08/27 16:02:37;;;;;;;;;;;;;;;26.56;64.93;100428.66;5064400;28;1213;-64
2021/08/27 16:05:05;;;;;;;;;;;;;;;26.54;65.19;100433.28;5064480;28;1914;-63
2021/08/27 16:07:32;;;;;;;;;;;;;;;26.58;66.02;100431.16;5064259;28;1237;-63
2021/08/27 16:09:58;;;;;;;;;;;;;;;26.57;65.92;100433.00;5064296;28;1141;-63
2021/08/27 16:12:25;;;;;;;;;;;;;;;26.51;65.68;100427.38;5063216;28;1213;-62
2021/08/27 16:14:52;;;;;;;;;;;;;;;26.55;65.96;100437.66;5064210;28;1053;-62
2021/08/27 16:17:20;;;;;;;;;;;;;;;26.57;66.02;100432.16;5063861;28;1232;-62
2021/08/27 16:19:48;;;;;;;;;;;;;;;26.57;65.74;100435.66;5062603;28;1894;-63
2021/08/27 16:22:15;;;;;;;;;;;;;;;26.57;66.14;100430.31;5063509;28;1240;-62
2021/08/27 16:24:41;;;;;;;;;;;;;;;26.58;66.12;100440.03;5063026;28;1996;-62
2021/08/27 16:27:08;;;;;;;;;;;;;;;26.58;66.38;100442.69;5072545;28;1237;-62
2021/08/27 16:29:35;;;;;;;;;;;;;;;26.58;65.89;100449.88;5071842;28;1649;-63
2021/08/27 16:32:02;;;;;;;;;;;;;;;26.57;66.39;100450.84;5082177;28;1228;-63
2021/08/27 16:34:28;;;;;;;;;;;;;;;26.58;66.22;100450.72;5081630;28;1142;-63
2021/08/27 16:36:55;;;;;;;;;;;;;;;26.55;66.23;100460.84;5060961;28;1239;-62
2021/08/27 16:39:22;;;;;;;;;;;;;;;26.55;66.08;100456.34;5050814;28;1080;-63
2021/08/27 16:41:49;;;;;;;;;;;;;;;26.55;66.77;100451.00;5050321;28;1189;-63
2021/08/27 16:44:15;;;;;;;;;;;;;;;26.57;66.06;100451.69;5050324;28;1914;-63
2021/08/27 16:46:42;;;;;;;;;;;;;;;26.57;66.27;100443.69;5049469;28;1232;-63
2021/08/27 16:49:09;;;;;;;;;;;;;;;26.54;66.15;100454.66;5067870;28;1136;-63
2021/08/27 16:51:36;;;;;;;;;;;;;;;26.55;66.03;100459.03;5068632;28;2391;-63
2021/08/27 16:54:03;;;;;;;;;;;;;;;26.54;66.15;100468.00;5070307;28;1041;-63
2021/08/27 16:56:30;;;;;;;;;;;;;;;26.56;65.90;100468.72;5069954;28;1224;-62